Time,TemperatureF,DewpointF,PressureIn,WindDirection,WindDirectionDegrees,WindSpeedMPH,WindSpeedGustMPH,Humidity,HourlyPrecipIn,Conditions,Clouds,dailyrainin,SoftwareType,DateUTC
2013-06-29 00:00:00,65.3,65.0,29.35,SSW,202,4.7,-999.0,99,-99.99,,,0.00,Acu-Link.com,2013-06-29 04:00:00,
2013-06-29 00:15:00,64.9,64.6,29.36,SSW,202,3.7,-999.0,99,-99.99,,,0.00,Acu-Link.com,2013-06-29 04:15:00,
2013-06-29 00:30:00,64.6,64.3,29.35,WSW,247,3.2,-999.0,99,-99.99,,,0.00,Acu-Link.com,2013-06-29 04:30:00,
2013-06-29 00:45:00,64.4,64.1,29.35,West,270,5.8,-999.0,99,-99.99,,,0.00,Acu-Link.com,2013-06-29 04:45:00,
2013-06-29 01:00:00,64.4,64.1,29.35,SW,225,3.7,-999.0,99,-99.99,,,0.00,Acu-Link.com,2013-06-29 05:00:00,
2013-06-29 01:16:00,64.2,63.9,29.35,West,270,6.8,-999.0,99,-99.99,,,0.00,Acu-Link.com,2013-06-29 05:16:00,
2013-06-29 01:31:00,64.0,63.7,29.34,South,180,4.7,-999.0,99,-99.99,,,0.00,Acu-Link.com,2013-06-29 05:31:00,
2013-06-29 01:46:00,64.0,63.7,29.34,WNW,292,5.8,-999.0,99,-99.99,,,0.00,Acu-Link.com,2013-06-29 05:46:00,
2013-06-29 02:01:00,64.0,63.7,29.34,WSW,247,4.7,-999.0,99,-99.99,,,0.00,Acu-Link.com,2013-06-29 06:01:00,
2013-06-29 02:17:00,64.0,63.7,29.34,SSW,202,2.7,-999.0,99,-99.99,,,0.00,Acu-Link.com,2013-06-29 06:17:00,
2013-06-29 02:32:00,63.9,63.6,29.33,West,270,3.7,-999.0,99,-99.99,,,0.00,Acu-Link.com,2013-06-29 06:32:00,
2013-06-29 02:47:00,63.9,63.6,29.33,West,270,3.7,-999.0,99,-99.99,,,0.00,Acu-Link.com,2013-06-29 06:47:00,
2013-06-29 03:02:00,63.9,63.6,29.33,WNW,292,3.2,-999.0,99,-99.99,,,0.00,Acu-Link.com,2013-06-29 07:02:00,
2013-06-29 03:17:00,63.9,63.6,29.32,NW,315,4.2,-999.0,99,-99.99,,,0.00,Acu-Link.com,2013-06-29 07:17:00,
2013-06-29 03:33:00,63.7,63.4,29.32,SW,225,1.1,-999.0,99,-99.99,,,0.00,Acu-Link.com,2013-06-29 07:33:00,
2013-06-29 03:48:00,63.7,63.4,29.33,West,270,3.2,-999.0,99,-99.99,,,0.00,Acu-Link.com,2013-06-29 07:48:00,
2013-06-29 04:03:00,63.5,63.2,29.32,West,270,4.7,-999.0,99,-99.99,,,0.00,Acu-Link.com,2013-06-29 08:03:00,
2013-06-29 04:19:00,63.5,63.2,29.32,West,270,4.7,-999.0,99,-99.99,,,0.00,Acu-Link.com,2013-06-29 08:19:00,
2013-06-29 04:34:00,63.5,63.2,29.32,SSE,157,3.2,-999.0,99,-99.99,,,0.00,Acu-Link.com,2013-06-29 08:34:00,
2013-06-29 04:49:00,63.3,63.0,29.32,SW,225,4.2,-999.0,99,-99.99,,,0.00,Acu-Link.com,2013-06-29 08:49:00,
2013-06-29 05:04:00,63.1,62.8,29.32,West,270,4.7,-999.0,99,-99.99,,,0.00,Acu-Link.com,2013-06-29 09:04:00,
2013-06-29 05:20:00,62.8,62.5,29.32,West,270,1.7,-999.0,99,-99.99,,,0.00,Acu-Link.com,2013-06-29 09:20:00,
2013-06-29 05:35:00,62.6,62.3,29.33,West,270,3.7,-999.0,99,-99.99,,,0.00,Acu-Link.com,2013-06-29 09:35:00,
2013-06-29 05:50:00,62.4,62.1,29.32,West,270,4.7,-999.0,99,-99.99,,,0.00,Acu-Link.com,2013-06-29 09:50:00,
2013-06-29 06:08:00,62.4,62.1,29.33,West,270,3.2,-999.0,99,-99.99,,,0.00,Acu-Link.com,2013-06-29 10:08:00,
2013-06-29 06:23:00,62.2,61.9,29.33,WNW,292,3.2,-999.0,99,-99.99,,,0.00,Acu-Link.com,2013-06-29 10:23:00,
2013-06-29 06:38:00,62.2,61.9,29.33,West,270,4.2,-999.0,99,-99.99,,,0.00,Acu-Link.com,2013-06-29 10:38:00,
2013-06-29 06:53:00,62.4,62.1,29.34,WNW,292,4.2,-999.0,99,-99.99,,,0.00,Acu-Link.com,2013-06-29 10:53:00,
2013-06-29 07:09:00,63.0,62.7,29.34,WSW,247,4.2,-999.0,99,-99.99,,,0.00,Acu-Link.com,2013-06-29 11:09:00,
2013-06-29 07:24:00,63.9,63.6,29.33,South,180,4.7,-999.0,99,-99.99,,,0.00,Acu-Link.com,2013-06-29 11:24:00,
2013-06-29 07:39:00,64.9,64.6,29.34,West,270,2.7,-999.0,99,-99.99,,,0.00,Acu-Link.com,2013-06-29 11:39:00,
2013-06-29 07:54:00,65.7,65.4,29.34,WSW,247,4.2,-999.0,99,-99.99,,,0.00,Acu-Link.com,2013-06-29 11:54:00,
2013-06-29 08:10:00,65.8,65.5,29.35,WNW,292,4.2,-999.0,99,-99.99,,,0.00,Acu-Link.com,2013-06-29 12:10:00,
2013-06-29 08:25:00,66.6,66.3,29.34,NW,315,3.2,-999.0,99,-99.99,,,0.00,Acu-Link.com,2013-06-29 12:25:00,
2013-06-29 08:40:00,67.1,66.8,29.35,WNW,292,4.7,-999.0,99,-99.99,,,0.00,Acu-Link.com,2013-06-29 12:40:00,
2013-06-29 08:55:00,66.9,66.6,29.34,NNW,337,6.3,-999.0,99,-99.99,,,0.00,Acu-Link.com,2013-06-29 12:55:00,
2013-06-29 09:11:00,67.8,67.5,29.35,West,270,4.2,-999.0,99,-99.99,,,0.00,Acu-Link.com,2013-06-29 13:11:00,
2013-06-29 09:26:00,68.4,68.1,29.35,West,270,2.7,-999.0,99,-99.99,,,0.00,Acu-Link.com,2013-06-29 13:26:00,
2013-06-29 09:41:00,68.4,68.1,29.35,West,270,3.2,-999.0,99,-99.99,,,0.00,Acu-Link.com,2013-06-29 13:41:00,
2013-06-29 09:56:00,68.7,68.4,29.35,NW,315,4.7,-999.0,99,-99.99,,,0.00,Acu-Link.com,2013-06-29 13:56:00,
2013-06-29 10:12:00,69.8,69.5,29.35,WSW,247,4.7,-999.0,99,-99.99,,,0.00,Acu-Link.com,2013-06-29 14:12:00,
2013-06-29 10:27:00,71.1,70.8,29.35,WSW,247,3.7,-999.0,99,-99.99,,,0.00,Acu-Link.com,2013-06-29 14:27:00,
2013-06-29 10:42:00,72.1,71.2,29.35,WNW,292,6.3,-999.0,97,-99.99,,,0.00,Acu-Link.com,2013-06-29 14:42:00,
2013-06-29 10:57:00,71.1,70.5,29.35,SW,225,4.2,-999.0,98,-99.99,,,0.00,Acu-Link.com,2013-06-29 14:57:00,
2013-06-29 11:12:00,71.2,70.0,29.34,SW,225,4.2,-999.0,96,-99.99,,,0.00,Acu-Link.com,2013-06-29 15:12:00,
2013-06-29 11:28:00,70.3,70.0,29.34,West,270,2.7,-999.0,99,-99.99,,,0.00,Acu-Link.com,2013-06-29 15:28:00,
2013-06-29 11:43:00,69.3,69.0,29.34,WSW,247,4.2,-999.0,99,-99.99,,,0.00,Acu-Link.com,2013-06-29 15:43:00,
2013-06-29 11:58:00,68.5,68.2,29.34,SSW,202,4.7,-999.0,99,-99.99,,,0.01,Acu-Link.com,2013-06-29 15:58:00,
2013-06-29 12:13:00,68.4,68.1,29.34,SSW,202,4.7,-999.0,99,-99.99,,,0.01,Acu-Link.com,2013-06-29 16:13:00,
2013-06-29 12:28:00,69.3,69.0,29.34,WNW,292,4.7,-999.0,99,-99.99,,,0.01,Acu-Link.com,2013-06-29 16:28:00,
2013-06-29 12:44:00,70.5,70.2,29.34,SW,225,2.7,-999.0,99,-99.99,,,0.01,Acu-Link.com,2013-06-29 16:44:00,
2013-06-29 12:59:00,71.1,70.8,29.35,SSW,202,5.8,-999.0,99,-99.99,,,0.01,Acu-Link.com,2013-06-29 16:59:00,
2013-06-29 13:14:00,73.0,72.4,29.34,South,180,1.1,-999.0,98,-99.99,,,0.01,Acu-Link.com,2013-06-29 17:14:00,
2013-06-29 13:29:00,73.2,71.4,29.34,West,270,1.1,-999.0,94,-99.99,,,0.01,Acu-Link.com,2013-06-29 17:29:00,
2013-06-29 13:45:00,72.1,70.9,29.34,North,0,5.8,-999.0,96,-99.99,,,0.01,Acu-Link.com,2013-06-29 17:45:00,
2013-06-29 14:00:00,69.6,69.3,29.35,NNE,22,7.3,-999.0,99,-99.99,,,0.01,Acu-Link.com,2013-06-29 18:00:00,
2013-06-29 14:15:00,65.5,65.2,29.35,NNE,22,7.8,-999.0,99,-99.99,,,0.01,Acu-Link.com,2013-06-29 18:15:00,
2013-06-29 14:30:00,64.4,64.1,29.35,NE,45,7.3,-999.0,99,-99.99,,,0.02,Acu-Link.com,2013-06-29 18:30:00,
2013-06-29 14:45:00,63.1,62.8,29.36,NNE,22,7.8,-999.0,99,-99.99,,,0.15,Acu-Link.com,2013-06-29 18:45:00,
2013-06-29 15:00:00,63.0,62.7,29.36,North,0,9.4,-999.0,99,-99.99,,,0.29,Acu-Link.com,2013-06-29 19:00:00,
2013-06-29 15:16:00,62.4,62.1,29.36,NNW,337,7.3,-999.0,99,-99.99,,,0.42,Acu-Link.com,2013-06-29 19:16:00,
2013-06-29 15:31:00,62.6,62.3,29.34,East,90,3.7,-999.0,99,-99.99,,,0.43,Acu-Link.com,2013-06-29 19:31:00,
2013-06-29 15:46:00,62.6,62.3,29.34,West,270,2.7,-999.0,99,-99.99,,,0.44,Acu-Link.com,2013-06-29 19:46:00,
2013-06-29 16:01:00,63.1,62.8,29.34,SSW,202,1.1,-999.0,99,-99.99,,,0.44,Acu-Link.com,2013-06-29 20:01:00,
2013-06-29 16:16:00,63.7,63.4,29.34,ENE,67,1.1,-999.0,99,-99.99,,,0.45,Acu-Link.com,2013-06-29 20:16:00,
2013-06-29 16:32:00,64.2,63.9,29.34,West,270,0.0,-999.0,99,-99.99,,,0.45,Acu-Link.com,2013-06-29 20:32:00,
2013-06-29 16:47:00,65.1,64.8,29.35,SW,225,0.0,-999.0,99,-99.99,,,0.46,Acu-Link.com,2013-06-29 20:47:00,
2013-06-29 17:02:00,65.7,65.4,29.34,NW,315,4.2,-999.0,99,-99.99,,,0.46,Acu-Link.com,2013-06-29 21:02:00,
2013-06-29 17:17:00,66.4,66.1,29.34,NNW,337,4.2,-999.0,99,-99.99,,,0.46,Acu-Link.com,2013-06-29 21:17:00,
2013-06-29 17:32:00,66.9,66.6,29.34,North,0,4.2,-999.0,99,-99.99,,,0.46,Acu-Link.com,2013-06-29 21:32:00,
2013-06-29 17:48:00,69.1,68.8,29.36,SE,135,1.7,-999.0,99,-99.99,,,0.46,Acu-Link.com,2013-06-29 21:48:00,
2013-06-29 18:03:00,71.1,70.8,29.35,East,90,2.7,-999.0,99,-99.99,,,0.46,Acu-Link.com,2013-06-29 22:03:00,
2013-06-29 18:18:00,71.1,70.8,29.36,NE,45,2.7,-999.0,99,-99.99,,,0.46,Acu-Link.com,2013-06-29 22:18:00,
2013-06-29 18:33:00,70.0,69.7,29.35,NE,45,0.0,-999.0,99,-99.99,,,0.46,Acu-Link.com,2013-06-29 22:33:00,
2013-06-29 18:48:00,73.0,71.8,29.35,NW,315,2.2,-999.0,96,-99.99,,,0.46,Acu-Link.com,2013-06-29 22:48:00,
2013-06-29 19:03:00,74.7,71.9,29.34,WNW,292,3.7,-999.0,91,-99.99,,,0.46,Acu-Link.com,2013-06-29 23:03:00,
2013-06-29 19:19:00,74.3,70.8,29.36,NW,315,3.7,-999.0,89,-99.99,,,0.46,Acu-Link.com,2013-06-29 23:19:00,
2013-06-29 19:34:00,72.1,70.9,29.36,NW,315,3.2,-999.0,96,-99.99,,,0.46,Acu-Link.com,2013-06-29 23:34:00,
2013-06-29 19:49:00,71.6,71.0,29.36,NNE,22,5.8,-999.0,98,-99.99,,,0.46,Acu-Link.com,2013-06-29 23:49:00,
2013-06-29 20:04:00,70.3,69.7,29.37,NNE,22,3.7,-999.0,98,-99.99,,,0.46,Acu-Link.com,2013-06-30 00:04:00,
2013-06-29 20:19:00,69.8,69.5,29.37,NNE,22,4.7,-999.0,99,-99.99,,,0.46,Acu-Link.com,2013-06-30 00:19:00,
2013-06-29 20:34:00,69.1,68.8,29.38,NNE,22,3.7,-999.0,99,-99.99,,,0.46,Acu-Link.com,2013-06-30 00:34:00,
2013-06-29 20:50:00,68.4,68.1,29.38,NNE,22,4.2,-999.0,99,-99.99,,,0.46,Acu-Link.com,2013-06-30 00:50:00,
2013-06-29 21:05:00,67.8,67.5,29.37,NNE,22,2.7,-999.0,99,-99.99,,,0.46,Acu-Link.com,2013-06-30 01:05:00,
2013-06-29 21:20:00,67.3,67.0,29.39,NNE,22,2.2,-999.0,99,-99.99,,,0.46,Acu-Link.com,2013-06-30 01:20:00,
2013-06-29 21:35:00,66.9,66.6,29.39,NNE,22,3.7,-999.0,99,-99.99,,,0.46,Acu-Link.com,2013-06-30 01:35:00,
2013-06-29 21:50:00,66.7,66.4,29.39,North,0,3.2,-999.0,99,-99.99,,,0.46,Acu-Link.com,2013-06-30 01:50:00,
2013-06-29 22:06:00,66.2,65.9,29.40,NE,45,3.7,-999.0,99,-99.99,,,0.46,Acu-Link.com,2013-06-30 02:06:00,
2013-06-29 22:21:00,65.5,65.2,29.40,NE,45,3.2,-999.0,99,-99.99,,,0.46,Acu-Link.com,2013-06-30 02:21:00,
2013-06-29 22:36:00,64.8,64.5,29.41,ESE,112,0.0,-999.0,99,-99.99,,,0.46,Acu-Link.com,2013-06-30 02:36:00,
2013-06-29 22:51:00,64.2,63.9,29.41,NW,315,0.0,-999.0,99,-99.99,,,0.46,Acu-Link.com,2013-06-30 02:51:00,
2013-06-29 23:06:00,64.0,63.7,29.42,NE,45,0.0,-999.0,99,-99.99,,,0.46,Acu-Link.com,2013-06-30 03:06:00,
2013-06-29 23:22:00,64.2,63.9,29.41,NNE,22,3.7,-999.0,99,-99.99,,,0.46,Acu-Link.com,2013-06-30 03:22:00,
2013-06-29 23:37:00,64.0,63.7,29.41,NNE,22,4.2,-999.0,99,-99.99,,,0.46,Acu-Link.com,2013-06-30 03:37:00,
2013-06-29 23:52:00,64.0,63.7,29.41,NNE,22,4.2,-999.0,99,-99.99,,,0.46,Acu-Link.com,2013-06-30 03:52:00,